createdAt,value
2022-08-27T00:01:00.105Z,80.13
2022-08-27T00:06:01.803Z,79.42
2022-08-27T00:11:03.360Z,79.15
2022-08-27T00:16:07.518Z,79.92
2022-08-27T00:21:09.364Z,79.43
2022-08-27T00:26:11.200Z,80.57
2022-08-27T00:31:12.774Z,81.34
2022-08-27T00:36:15.178Z,81.21
2022-08-27T00:41:19.256Z,82.03
2022-08-27T00:46:38.687Z,83.00
2022-08-27T00:51:41.112Z,83.53
2022-08-27T00:56:44.409Z,82.94
2022-08-27T01:02:11.342Z,82.33
2022-08-27T01:07:14.575Z,83.05
2022-08-27T01:12:16.526Z,82.58
2022-08-27T01:17:18.435Z,82.30
2022-08-27T01:23:04.488Z,81.78
2022-08-27T01:28:06.978Z,80.37
2022-08-27T01:33:17.272Z,80.39
2022-08-27T01:38:30.691Z,79.90
2022-08-27T01:43:32.938Z,78.75
2022-08-27T01:48:35.072Z,79.45
2022-08-27T01:53:36.683Z,78.38
2022-08-27T01:58:39.507Z,78.77
2022-08-27T02:03:41.498Z,78.20
2022-08-27T02:08:43.067Z,77.66
2022-08-27T02:13:44.597Z,78.28
2022-08-27T02:18:47.201Z,77.01
2022-08-27T02:23:48.832Z,76.49
2022-08-27T02:28:50.469Z,76.56
2022-08-27T02:33:52.643Z,76.72
2022-08-27T02:38:57.447Z,75.86
2022-08-27T02:43:58.953Z,75.95
2022-08-27T02:49:03.053Z,75.88
2022-08-27T02:54:04.730Z,75.87
2022-08-27T02:59:10.254Z,76.08
2022-08-27T03:04:11.779Z,76.93
2022-08-27T03:09:13.368Z,76.42
2022-08-27T03:14:14.822Z,76.23
2022-08-27T03:19:23.753Z,76.56
2022-08-27T03:24:25.931Z,76.69
2022-08-27T03:29:28.263Z,76.52
2022-08-27T03:34:30.071Z,77.47
2022-08-27T03:39:31.757Z,76.08
2022-08-27T03:44:33.465Z,76.62
2022-08-27T03:49:34.922Z,75.91
2022-08-27T03:54:38.103Z,76.62
2022-08-27T03:59:39.604Z,76.73
2022-08-27T04:04:41.149Z,77.22
2022-08-27T04:09:42.652Z,76.81
2022-08-27T04:14:44.216Z,76.67
2022-08-27T04:19:45.711Z,76.87
2022-08-27T04:24:47.393Z,77.10
2022-08-27T04:29:49.447Z,76.89
2022-08-27T04:34:57.235Z,77.53
2022-08-27T04:39:59.000Z,78.38
2022-08-27T04:45:00.638Z,78.06
2022-08-27T04:50:05.174Z,77.71
2022-08-27T04:55:08.038Z,78.57
2022-08-27T05:00:09.992Z,77.48
2022-08-27T05:05:15.822Z,77.32
2022-08-27T05:10:17.621Z,76.68
2022-08-27T05:15:19.095Z,76.14
2022-08-27T05:20:20.646Z,76.30
2022-08-27T05:25:23.884Z,74.95
2022-08-27T05:30:25.453Z,74.81
2022-08-27T05:35:26.998Z,75.31
2022-08-27T05:40:28.595Z,74.95
2022-08-27T05:45:30.177Z,74.52
2022-08-27T05:50:31.664Z,75.17
2022-08-27T05:55:45.028Z,75.23
2022-08-27T06:01:08.261Z,75.64
2022-08-27T06:06:12.314Z,75.01
2022-08-27T06:11:14.322Z,74.68
2022-08-27T06:16:18.387Z,74.83
2022-08-27T06:21:24.461Z,74.01
2022-08-27T06:26:27.478Z,74.58
2022-08-27T06:31:29.024Z,74.51
2022-08-27T06:36:31.011Z,74.48
2022-08-27T06:41:33.427Z,74.87
2022-08-27T06:46:36.550Z,73.96
2022-08-27T06:51:39.771Z,74.65
2022-08-27T06:56:44.421Z,74.16
2022-08-27T07:01:49.399Z,73.89
2022-08-27T07:06:51.129Z,73.68
2022-08-27T07:11:52.661Z,74.05
2022-08-27T07:16:55.211Z,73.84
2022-08-27T07:21:56.746Z,73.99
2022-08-27T07:26:58.894Z,73.02
2022-08-27T07:32:00.365Z,72.37
2022-08-27T07:37:01.861Z,72.40
2022-08-27T07:42:22.130Z,72.62
2022-08-27T07:47:23.641Z,72.19
2022-08-27T07:52:26.754Z,72.91
2022-08-27T07:57:28.306Z,73.48
2022-08-27T08:02:30.797Z,73.61
2022-08-27T08:07:34.401Z,73.56
2022-08-27T08:12:40.246Z,72.91
2022-08-27T08:17:41.819Z,72.38
2022-08-27T08:22:43.373Z,72.69
2022-08-27T08:27:45.069Z,72.55
2022-08-27T08:32:46.541Z,72.74
2022-08-27T08:37:48.065Z,72.69
2022-08-27T08:42:53.218Z,71.79
2022-08-27T08:48:18.431Z,70.38
2022-08-27T08:53:36.732Z,72.29
2022-08-27T08:58:49.607Z,71.93
2022-08-27T09:04:00.434Z,70.27
2022-08-27T09:09:32.286Z,70.36
2022-08-27T09:14:47.099Z,71.14
2022-08-27T09:19:52.411Z,70.53
2022-08-27T09:25:07.092Z,70.63
2022-08-27T09:30:12.429Z,69.62
2022-08-27T09:35:15.929Z,68.31
2022-08-27T09:40:36.999Z,68.37
2022-08-27T09:45:54.302Z,66.82
2022-08-27T09:51:03.010Z,67.41
2022-08-27T09:56:07.917Z,67.89
2022-08-27T10:01:21.858Z,65.68
2022-08-27T10:06:31.315Z,64.81
2022-08-27T10:11:35.966Z,65.71
2022-08-27T10:16:52.929Z,64.91
2022-08-27T10:22:03.906Z,65.72
2022-08-27T10:27:27.317Z,64.96
2022-08-27T10:32:43.783Z,65.63
2022-08-27T10:38:35.282Z,65.04
2022-08-27T10:43:53.275Z,65.42
2022-08-27T10:49:13.547Z,63.10
2022-08-27T10:54:32.914Z,64.47
2022-08-27T10:59:44.147Z,64.29
2022-08-27T11:04:53.867Z,63.26
2022-08-27T11:10:10.510Z,62.75
2022-08-27T11:15:16.026Z,62.53
2022-08-27T11:20:36.974Z,62.76
2022-08-27T11:25:53.832Z,61.26
2022-08-27T11:31:06.140Z,60.22
2022-08-27T11:36:10.643Z,60.32
2022-08-27T11:41:46.658Z,59.68
2022-08-27T11:46:53.886Z,60.69
2022-08-27T11:51:59.035Z,58.71
2022-08-27T11:57:00.579Z,59.24
2022-08-27T12:02:31.578Z,58.06
2022-08-27T12:07:35.934Z,57.71
2022-08-27T12:13:02.470Z,57.67
2022-08-27T12:18:25.792Z,57.15
2022-08-27T12:24:07.873Z,55.81
2022-08-27T12:29:29.338Z,56.68
2022-08-27T12:34:41.334Z,55.71
2022-08-27T12:39:49.192Z,56.30
2022-08-27T12:44:56.153Z,56.58
2022-08-27T12:50:00.870Z,55.91
2022-08-27T12:55:26.546Z,56.23
2022-08-27T13:00:37.835Z,55.61
2022-08-27T13:05:42.471Z,57.08
2022-08-27T13:10:44.791Z,56.06
2022-08-27T13:15:49.907Z,55.96
2022-08-27T13:21:01.643Z,56.37
2022-08-27T13:26:07.286Z,56.27
2022-08-27T13:31:10.939Z,55.02
2022-08-27T13:36:12.848Z,54.92
2022-08-27T13:41:37.494Z,55.40
2022-08-27T13:46:51.954Z,55.74
2022-08-27T13:52:17.309Z,55.79
2022-08-27T13:57:30.241Z,56.43
2022-08-27T14:02:32.456Z,56.21
2022-08-27T14:07:36.940Z,56.61
2022-08-27T14:12:41.443Z,55.99
2022-08-27T14:17:45.903Z,55.86
2022-08-27T14:22:48.054Z,55.54
2022-08-27T14:27:58.657Z,55.65
2022-08-27T14:33:02.278Z,55.20
2022-08-27T14:38:18.578Z,55.39
2022-08-27T14:43:20.833Z,55.04
2022-08-27T14:48:30.311Z,55.32
2022-08-27T14:53:31.774Z,54.75
2022-08-27T14:58:33.223Z,54.25
2022-08-27T15:03:38.854Z,55.63
2022-08-27T15:08:40.565Z,55.99
2022-08-27T15:13:46.601Z,54.56
2022-08-27T15:18:53.714Z,54.87
2022-08-27T15:24:22.361Z,55.66
2022-08-27T15:29:24.990Z,55.90
2022-08-27T15:34:26.532Z,56.08
2022-08-27T15:39:27.992Z,55.82
2022-08-27T15:44:29.656Z,55.00
2022-08-27T15:49:31.446Z,55.34
2022-08-27T15:54:33.550Z,55.89
2022-08-27T15:59:36.058Z,55.44
2022-08-27T16:04:38.816Z,55.12
2022-08-27T16:09:40.975Z,55.94
2022-08-27T16:14:42.420Z,55.63
2022-08-27T16:19:43.919Z,55.70
2022-08-27T16:24:45.521Z,55.85
2022-08-27T16:29:46.958Z,55.72
2022-08-27T16:34:55.369Z,55.66
2022-08-27T16:39:57.803Z,55.34
2022-08-27T16:44:59.931Z,55.37
2022-08-27T16:50:24.144Z,54.49
2022-08-27T16:55:27.629Z,55.13
2022-08-27T17:00:29.965Z,55.23
2022-08-27T17:05:34.294Z,55.22
2022-08-27T17:10:45.487Z,55.87
2022-08-27T17:15:53.172Z,54.72
2022-08-27T17:20:56.879Z,54.77
2022-08-27T17:25:58.523Z,54.52
2022-08-27T17:31:01.544Z,54.87
2022-08-27T17:36:03.586Z,54.95
2022-08-27T17:41:33.432Z,54.60
2022-08-27T17:46:35.535Z,55.54
2022-08-27T17:51:37.150Z,54.73
2022-08-27T17:56:40.065Z,55.03
2022-08-27T18:01:41.704Z,54.93
2022-08-27T18:06:43.441Z,55.19
2022-08-27T18:11:46.336Z,55.85
2022-08-27T18:16:47.839Z,55.98
2022-08-27T18:21:50.387Z,56.12
2022-08-27T18:26:52.448Z,55.68
2022-08-27T18:31:54.049Z,55.97
2022-08-27T18:36:55.539Z,56.26
2022-08-27T18:41:57.095Z,56.31
2022-08-27T18:46:58.746Z,57.07
2022-08-27T18:52:00.979Z,57.14
2022-08-27T18:57:02.459Z,56.66
2022-08-27T19:02:04.434Z,56.91
2022-08-27T19:07:06.372Z,57.55
2022-08-27T19:12:08.155Z,57.08
2022-08-27T19:17:18.582Z,57.60
2022-08-27T19:22:20.661Z,57.64
2022-08-27T19:27:25.116Z,58.02
2022-08-27T19:32:26.705Z,58.56
2022-08-27T19:37:30.614Z,57.93
2022-08-27T19:42:32.267Z,57.91
2022-08-27T19:47:33.955Z,58.31
2022-08-27T19:52:35.688Z,58.44
2022-08-27T19:57:37.139Z,58.55
2022-08-27T20:02:38.682Z,58.77
2022-08-27T20:07:40.212Z,58.87
2022-08-27T20:12:41.726Z,59.22
2022-08-27T20:17:44.042Z,58.75
2022-08-27T20:22:47.710Z,59.16
2022-08-27T20:27:50.391Z,58.81
2022-08-27T20:32:51.898Z,59.48
2022-08-27T20:37:53.666Z,60.16
2022-08-27T20:42:56.123Z,60.31
2022-08-27T20:47:58.649Z,60.54
2022-08-27T20:53:00.615Z,60.21
2022-08-27T20:58:20.814Z,60.58
2022-08-27T21:03:22.744Z,60.67
2022-08-27T21:08:24.348Z,60.80
2022-08-27T21:13:28.307Z,60.82
2022-08-27T21:18:32.538Z,60.29
2022-08-27T21:23:36.754Z,60.63
2022-08-27T21:28:40.446Z,61.04
2022-08-27T21:33:41.953Z,61.35
2022-08-27T21:38:43.607Z,61.18
2022-08-27T21:43:45.087Z,61.12
2022-08-27T21:48:48.170Z,61.23
2022-08-27T21:54:00.322Z,62.11
2022-08-27T21:59:01.971Z,61.50
2022-08-27T22:04:03.709Z,62.18
2022-08-27T22:09:05.210Z,62.39
2022-08-27T22:14:06.687Z,62.12
2022-08-27T22:19:08.226Z,62.44
2022-08-27T22:24:12.297Z,62.27
2022-08-27T22:29:16.292Z,62.34
2022-08-27T22:34:17.952Z,61.61
2022-08-27T22:39:19.422Z,61.48
2022-08-27T22:44:22.655Z,61.87
2022-08-27T22:49:24.344Z,61.62
2022-08-27T22:54:25.831Z,61.05
2022-08-27T22:59:27.639Z,60.86
2022-08-27T23:04:53.190Z,60.95
2022-08-27T23:09:51.885Z,60.64
2022-08-27T23:14:53.393Z,60.02
2022-08-27T23:19:55.793Z,60.85
2022-08-27T23:25:15.955Z,60.43
2022-08-27T23:30:18.270Z,60.14
2022-08-27T23:35:19.829Z,60.32
2022-08-27T23:40:22.081Z,60.53
2022-08-27T23:45:25.856Z,60.84
2022-08-27T23:50:34.147Z,60.98
2022-08-27T23:55:37.679Z,61.79
